createdAt,value
2022-12-06T00:04:29.029Z,102687.22
2022-12-06T00:09:33.657Z,102678.78
2022-12-06T00:14:35.461Z,102689.25
2022-12-06T00:19:37.049Z,102685.94
2022-12-06T00:24:38.582Z,102680.34
2022-12-06T00:29:40.204Z,102680.56
2022-12-06T00:34:41.719Z,102683.28
2022-12-06T00:39:43.393Z,102687.47
2022-12-06T00:44:45.001Z,102684.16
2022-12-06T00:49:46.562Z,102681.84
2022-12-06T00:54:48.185Z,102682.13
2022-12-06T00:59:49.777Z,102683.00
2022-12-06T01:11:45.175Z,102676.75
2022-12-06T01:16:46.774Z,102684.41
2022-12-06T01:21:49.035Z,102685.44
2022-12-06T01:26:50.718Z,102687.22
2022-12-06T01:31:52.408Z,102686.31
2022-12-06T01:36:54.105Z,102680.19
2022-12-06T01:41:56.028Z,102684.91
2022-12-06T01:46:57.688Z,102685.78
2022-12-06T01:52:05.981Z,102682.63
2022-12-06T01:57:11.295Z,102677.38
2022-12-06T02:02:13.910Z,102675.38
2022-12-06T02:07:18.740Z,102677.38
2022-12-06T02:12:20.407Z,102674.72
2022-12-06T02:17:46.738Z,102674.47
2022-12-06T02:23:20.689Z,102666.03
2022-12-06T02:28:44.101Z,102652.53
2022-12-06T02:34:05.408Z,102651.25
2022-12-06T02:39:12.807Z,102654.56
2022-12-06T02:44:27.397Z,102657.13
2022-12-06T02:49:33.568Z,102653.91
2022-12-06T02:54:35.369Z,102655.84
2022-12-06T02:59:37.078Z,102660.16
2022-12-06T03:04:50.413Z,102656.63
2022-12-06T03:10:32.108Z,102657.59
2022-12-06T03:15:48.419Z,102656.84
2022-12-06T03:27:25.807Z,102659.41
2022-12-06T03:32:32.483Z,102670.88
2022-12-06T03:37:37.992Z,102658.91
2022-12-06T03:42:40.057Z,102657.34
2022-12-06T03:48:12.777Z,102645.13
2022-12-06T03:53:17.713Z,102642.84
2022-12-06T03:58:20.237Z,102647.78
2022-12-06T04:03:21.977Z,102643.34
2022-12-06T04:08:23.753Z,102649.84
2022-12-06T04:13:26.210Z,102648.69
2022-12-06T04:18:28.672Z,102648.44
2022-12-06T04:23:32.242Z,102657.00
2022-12-06T04:28:52.901Z,102653.78
2022-12-06T04:34:13.261Z,102653.66
2022-12-06T04:39:19.254Z,102654.81
2022-12-06T04:44:22.557Z,102651.63
2022-12-06T04:49:26.413Z,102658.13
2022-12-06T04:54:30.140Z,102644.63
2022-12-06T04:59:31.755Z,102641.31
2022-12-06T05:04:34.086Z,102646.16
2022-12-06T05:09:38.850Z,102643.22
2022-12-06T05:14:40.705Z,102637.13
2022-12-06T05:19:42.728Z,102635.84
2022-12-06T05:24:44.288Z,102630.50
2022-12-06T05:29:45.823Z,102639.03
2022-12-06T05:34:47.402Z,102639.94
2022-12-06T05:39:48.952Z,102641.84
2022-12-06T05:44:50.509Z,102635.72
2022-12-06T05:49:52.087Z,102631.66
2022-12-06T05:54:53.681Z,102637.00
2022-12-06T05:59:55.328Z,102635.47
2022-12-06T06:04:56.918Z,102629.09
2022-12-06T06:09:58.806Z,102632.69
2022-12-06T06:15:00.721Z,102634.47
2022-12-06T06:20:08.137Z,102633.16
2022-12-06T06:25:10.626Z,102634.19
2022-12-06T06:30:13.276Z,102634.69
2022-12-06T06:35:14.849Z,102633.16
2022-12-06T06:40:16.523Z,102634.69
2022-12-06T06:45:18.094Z,102630.63
2022-12-06T06:50:19.676Z,102630.38
2022-12-06T06:55:21.294Z,102634.44
2022-12-06T07:00:23.063Z,102642.75
2022-12-06T07:05:24.968Z,102640.06
2022-12-06T07:10:27.370Z,102639.81
2022-12-06T07:15:28.898Z,102635.47
2022-12-06T07:20:30.441Z,102632.69
2022-12-06T07:25:32.608Z,102643.88
2022-12-06T07:30:34.328Z,102635.75
2022-12-06T07:36:10.436Z,102641.31
2022-12-06T07:41:25.543Z,102642.88
2022-12-06T07:46:27.427Z,102646.94
2022-12-06T07:51:29.045Z,102633.94
2022-12-06T07:56:30.612Z,102640.84
2022-12-06T08:01:32.287Z,102643.63
2022-12-06T08:06:34.767Z,102644.38
2022-12-06T08:11:36.753Z,102641.97
2022-12-06T08:16:40.794Z,102647.06
2022-12-06T08:21:42.380Z,102651.13
2022-12-06T08:26:44.171Z,102648.19
2022-12-06T08:31:46.852Z,102660.97
2022-12-06T08:36:48.696Z,102653.31
2022-12-06T08:41:57.930Z,102655.72
2022-12-06T08:47:02.195Z,102652.81
2022-12-06T08:52:04.068Z,102656.88
2022-12-06T08:57:05.775Z,102653.81
2022-12-06T09:02:07.429Z,102654.06
2022-12-06T09:07:11.903Z,102664.38
2022-12-06T09:12:14.004Z,102655.53
2022-12-06T09:17:15.712Z,102660.16
2022-12-06T09:22:17.506Z,102659.41
2022-12-06T09:34:04.690Z,102656.88
2022-12-06T09:39:55.812Z,102646.41
2022-12-06T09:45:49.089Z,102646.69
2022-12-06T09:58:39.896Z,102653.25
2022-12-06T10:05:00.241Z,102631.34
2022-12-06T10:11:02.743Z,102617.28
2022-12-06T10:17:10.069Z,102619.81
2022-12-06T10:22:37.158Z,102604.25
2022-12-06T10:28:16.274Z,102605.38
2022-12-06T10:33:39.541Z,102602.28
2022-12-06T10:39:15.546Z,102566.81
2022-12-06T10:44:49.012Z,102529.16
2022-12-06T10:50:49.892Z,102485.94
2022-12-06T10:56:44.457Z,102463.34
2022-12-06T11:02:30.427Z,102421.94
2022-12-06T11:08:02.725Z,102351.69
2022-12-06T11:14:08.579Z,102300.97
2022-12-06T11:19:45.423Z,102259.72
2022-12-06T11:25:31.549Z,102236.53
2022-12-06T11:31:01.002Z,102196.53
2022-12-06T11:36:16.269Z,102168.47
2022-12-06T11:41:37.550Z,102139.28
2022-12-06T11:47:30.843Z,102081.56
2022-12-06T11:52:55.937Z,102031.69
2022-12-06T11:58:16.475Z,102012.53
2022-12-06T12:03:47.684Z,102018.88
2022-12-06T12:09:46.905Z,101968.53
2022-12-06T12:15:00.936Z,101961.06
2022-12-06T12:21:00.169Z,101967.44
2022-12-06T12:26:21.148Z,101985.38
2022-12-06T12:31:24.672Z,101994.53
2022-12-06T12:36:30.558Z,102011.44
2022-12-06T12:41:44.503Z,102009.00
2022-12-06T12:47:02.797Z,102015.78
2022-12-06T12:52:29.517Z,102002.91
2022-12-06T12:57:31.232Z,101999.38
2022-12-06T13:02:36.201Z,102001.53
2022-12-06T13:07:42.498Z,101999.16
2022-12-06T13:12:56.420Z,101989.81
2022-12-06T13:18:26.738Z,101982.16
2022-12-06T13:23:34.229Z,101975.97
2022-12-06T13:28:52.623Z,101970.25
2022-12-06T13:34:07.259Z,101970.25
2022-12-06T13:46:27.866Z,101955.41
2022-12-06T13:57:22.384Z,101944.31
2022-12-06T14:02:45.222Z,101941.53
2022-12-06T14:07:47.235Z,101938.44
2022-12-06T14:13:23.206Z,101944.31
2022-12-06T14:18:28.190Z,101957.09
2022-12-06T14:23:46.899Z,101953.84
2022-12-06T14:29:04.562Z,101959.84
2022-12-06T14:34:06.453Z,101947.56
2022-12-06T14:39:24.453Z,101946.59
2022-12-06T14:44:36.630Z,101944.72
2022-12-06T14:50:04.990Z,101945.28
2022-12-06T14:55:24.879Z,101938.09
2022-12-06T15:00:38.665Z,101942.03
2022-12-06T15:06:09.499Z,101941.66
2022-12-06T15:11:34.285Z,101945.28
2022-12-06T15:16:36.432Z,101947.22
2022-12-06T15:21:38.381Z,101952.81
2022-12-06T15:26:43.184Z,101953.09
2022-12-06T15:31:51.954Z,101969.16
2022-12-06T15:37:15.566Z,101977.34
2022-12-06T15:42:24.080Z,101968.88
2022-12-06T15:47:28.455Z,101977.22
2022-12-06T15:52:30.200Z,101978.59
2022-12-06T15:57:32.281Z,101988.56
2022-12-06T16:02:34.340Z,101978.50
2022-12-06T16:07:44.046Z,101981.28
2022-12-06T16:13:04.616Z,101992.28
2022-12-06T16:18:10.800Z,101998.84
2022-12-06T16:24:12.005Z,102007.59
2022-12-06T16:29:06.040Z,102006.81
2022-12-06T16:34:08.578Z,102014.47
2022-12-06T16:39:10.791Z,102016.25
2022-12-06T16:44:12.813Z,102007.81
2022-12-06T16:54:50.643Z,102066.75
2022-12-06T16:59:53.543Z,102070.38
2022-12-06T17:04:57.423Z,102069.28
2022-12-06T17:10:00.313Z,102067.97
2022-12-06T17:15:02.968Z,102067.63
2022-12-06T17:20:08.102Z,102075.28
2022-12-06T17:25:12.863Z,102070.41
2022-12-06T17:30:20.129Z,102069.06
2022-12-06T17:35:21.852Z,102068.84
2022-12-06T17:40:23.573Z,102062.88
2022-12-06T17:45:31.651Z,102067.81
2022-12-06T17:50:35.881Z,102067.00
2022-12-06T17:55:37.735Z,102079.66
2022-12-06T18:00:39.697Z,102084.84
2022-12-06T18:05:42.336Z,102084.56
2022-12-06T18:10:44.374Z,102099.19
2022-12-06T18:15:46.497Z,102101.75
2022-12-06T18:20:48.324Z,102112.50
2022-12-06T18:25:50.380Z,102119.19
2022-12-06T18:30:52.232Z,102111.72
2022-12-06T18:35:54.035Z,102119.97
2022-12-06T18:41:20.684Z,102129.69
2022-12-06T18:46:24.017Z,102125.47
2022-12-06T18:51:30.152Z,102133.69
2022-12-06T18:56:33.452Z,102133.47
2022-12-06T19:01:38.408Z,102142.31
2022-12-06T19:06:40.363Z,102140.56
2022-12-06T19:11:44.510Z,102147.00
2022-12-06T19:16:48.662Z,102146.78
2022-12-06T19:21:52.536Z,102152.34
2022-12-06T19:26:55.618Z,102178.72
2022-12-06T19:31:57.382Z,102183.38
2022-12-06T19:37:01.127Z,102180.72
2022-12-06T19:42:21.389Z,102188.03
2022-12-06T19:47:28.848Z,102198.91
2022-12-06T19:53:25.276Z,102195.56
2022-12-06T19:58:27.254Z,102195.34
2022-12-06T20:03:29.018Z,102196.66
2022-12-06T20:08:59.430Z,102193.19
2022-12-06T20:14:07.006Z,102204.19
2022-12-06T20:19:10.021Z,102216.41
2022-12-06T20:24:13.768Z,102211.53
2022-12-06T20:29:18.065Z,102217.97
2022-12-06T20:34:20.013Z,102224.50
2022-12-06T20:39:24.253Z,102213.72
2022-12-06T20:44:25.948Z,102215.03
2022-12-06T20:49:27.748Z,102224.78
2022-12-06T20:54:29.530Z,102225.66
2022-12-06T20:59:31.221Z,102225.50
2022-12-06T21:04:32.900Z,102217.44
2022-12-06T21:09:36.906Z,102214.09
2022-12-06T21:14:38.608Z,102210.50
2022-12-06T21:19:40.387Z,102207.16
2022-12-06T21:24:42.042Z,102216.91
2022-12-06T21:29:43.784Z,102212.25
2022-12-06T21:34:47.792Z,102212.78
2022-12-06T21:39:49.488Z,102214.78
2022-12-06T21:44:51.249Z,102215.38
2022-12-06T21:49:52.978Z,102227.34
2022-12-06T21:54:56.497Z,102218.91
2022-12-06T21:59:58.248Z,102227.63
2022-12-06T22:05:00.170Z,102238.50
2022-12-06T22:10:02.284Z,102238.75
2022-12-06T22:15:04.610Z,102236.31
2022-12-06T22:20:07.096Z,102235.50
2022-12-06T22:25:09.278Z,102232.28
2022-12-06T22:30:11.485Z,102237.09
2022-12-06T22:35:13.421Z,102234.28
2022-12-06T22:40:15.382Z,102237.44
2022-12-06T22:45:17.222Z,102235.50
2022-12-06T22:50:18.843Z,102243.31
2022-12-06T22:55:20.566Z,102235.97
2022-12-06T23:00:22.385Z,102249.59
2022-12-06T23:05:26.688Z,102250.59
2022-12-06T23:10:28.820Z,102247.75
2022-12-06T23:15:31.680Z,102254.53
2022-12-06T23:20:33.586Z,102265.25
2022-12-06T23:25:35.226Z,102267.00
2022-12-06T23:30:36.954Z,102271.78
2022-12-06T23:35:38.624Z,102265.44
2022-12-06T23:40:40.253Z,102270.25
2022-12-06T23:45:42.059Z,102271.50
2022-12-06T23:51:14.146Z,102273.28
2022-12-06T23:56:20.614Z,102272.16
